Time;durP1;ratioP1;P1;durP2;ratioP2;P2;SDS_P1;SDS_P2;PMS_P1;PMS_P2;Temp;Humidity;BMP_temperature;BMP_pressure;BME280_temperature;BME280_humidity;BME280_pressure;Samples;Min_cycle;Max_cycle;Signal;HPM_P1;HPM_P2
2023/04/03 00:01:26;;;;;;;5.60;2.28;;;4.80;99.90;;;;;;5089117;28;20042;-75
2023/04/03 00:03:52;;;;;;;7.55;2.40;;;4.80;99.90;;;;;;5092052;28;20039;-75
2023/04/03 00:06:18;;;;;;;5.95;2.30;;;4.80;99.90;;;;;;5093616;28;20383;-76
2023/04/03 00:08:43;;;;;;;9.52;2.65;;;4.70;99.90;;;;;;5093474;28;20047;-75
2023/04/03 00:11:10;;;;;;;4.28;2.22;;;4.70;99.90;;;;;;5090805;28;20051;-75
2023/04/03 00:13:36;;;;;;;7.40;2.28;;;4.70;99.90;;;;;;5087241;28;20028;-75
2023/04/03 00:20:01;;;;;;;3.70;1.92;;;4.70;99.90;;;;;;5074113;28;20028;-76
2023/04/03 00:22:33;;;;;;;5.25;2.45;;;4.60;99.90;;;;;;5084572;28;20106;-76
2023/04/03 00:24:58;;;;;;;5.63;2.40;;;4.60;99.90;;;;;;5093246;28;20052;-76
2023/04/03 00:27:30;;;;;;;7.38;2.03;;;4.60;99.90;;;;;;5083181;28;20497;-76
2023/04/03 00:30:12;;;;;;;8.52;2.90;;;4.60;99.90;;;;;;5083828;28;20030;-76
2023/04/03 00:32:38;;;;;;;7.70;2.30;;;4.60;99.90;;;;;;5090218;28;20036;-76
2023/04/03 00:35:03;;;;;;;4.57;2.28;;;4.60;99.90;;;;;;5084626;28;20136;-77
2023/04/03 00:37:29;;;;;;;6.30;2.95;;;4.60;99.90;;;;;;5093266;28;20024;-77
2023/04/03 00:39:55;;;;;;;4.78;2.10;;;4.60;99.90;;;;;;5091782;28;20032;-75
2023/04/03 00:42:21;;;;;;;7.30;2.42;;;4.60;99.90;;;;;;5092079;28;20048;-75
2023/04/03 00:44:46;;;;;;;4.68;2.20;;;4.60;99.90;;;;;;5092297;28;20527;-76
2023/04/03 00:47:14;;;;;;;7.32;2.17;;;4.60;99.90;;;;;;5088273;28;20478;-76
2023/04/03 00:49:40;;;;;;;7.40;2.28;;;4.60;99.90;;;;;;5091413;28;20415;-76
2023/04/03 00:52:10;;;;;;;6.55;2.58;;;4.50;99.90;;;;;;5086598;28;20097;-75
2023/04/03 00:54:37;;;;;;;5.97;2.40;;;4.50;99.90;;;;;;5092583;28;20028;-75
2023/04/03 00:57:05;;;;;;;3.65;2.15;;;4.50;99.90;;;;;;5093847;28;20031;-76
2023/04/03 00:59:35;;;;;;;5.63;2.63;;;4.50;99.90;;;;;;5091189;28;20107;-76
2023/04/03 01:02:01;;;;;;;4.18;2.22;;;4.50;99.90;;;;;;5088167;28;20035;-75
2023/04/03 01:04:39;;;;;;;5.63;2.63;;;4.40;99.90;;;;;;5091545;28;20337;-77
2023/04/03 01:07:14;;;;;;;4.07;1.90;;;4.50;99.90;;;;;;5086973;28;20036;-76
2023/04/03 01:09:40;;;;;;;3.40;2.10;;;4.40;99.90;;;;;;5085696;28;20461;-77
2023/04/03 01:12:29;;;;;;;7.85;2.42;;;4.50;99.90;;;;;;5091984;28;20024;-77
2023/04/03 01:15:00;;;;;;;5.82;2.50;;;4.50;99.90;;;;;;5087134;28;20069;-77
2023/04/03 01:17:35;;;;;;;8.00;2.60;;;4.50;99.90;;;;;;5085156;28;20103;-77
2023/04/03 01:20:19;;;;;;;5.72;2.80;;;4.50;99.90;;;;;;5085800;28;20032;-76
2023/04/03 01:22:48;;;;;;;6.63;2.75;;;4.60;99.90;;;;;;5090044;28;20032;-77
2023/04/03 01:25:13;;;;;;;7.78;3.10;;;4.60;99.90;;;;;;5093011;28;20069;-77
2023/04/03 01:27:39;;;;;;;12.38;3.15;;;4.60;99.90;;;;;;5092688;28;20085;-77
2023/04/03 01:30:05;;;;;;;7.32;2.50;;;4.60;99.90;;;;;;5091668;28;20040;-75
2023/04/03 01:32:31;;;;;;;8.18;2.97;;;4.60;99.90;;;;;;5091916;28;20114;-75
2023/04/03 01:34:56;;;;;;;6.25;2.28;;;4.60;99.90;;;;;;5092314;28;20127;-75
2023/04/03 01:37:22;;;;;;;5.40;2.25;;;4.70;99.90;;;;;;5091464;28;20074;-76
2023/04/03 01:39:47;;;;;;;7.18;2.67;;;4.70;99.90;;;;;;5089147;28;20028;-75
2023/04/03 01:42:13;;;;;;;7.63;2.33;;;4.70;99.90;;;;;;5091622;28;20028;-75
2023/04/03 01:44:39;;;;;;;5.30;2.38;;;4.70;99.90;;;;;;5090452;28;20035;-75
2023/04/03 01:47:06;;;;;;;5.05;2.53;;;4.70;99.90;;;;;;5091790;28;20024;-76
2023/04/03 01:49:31;;;;;;;5.85;1.90;;;4.70;99.90;;;;;;5090643;28;20388;-77
2023/04/03 01:51:57;;;;;;;6.85;3.35;;;4.70;99.90;;;;;;5089562;28;20032;-75
2023/04/03 01:54:22;;;;;;;6.05;2.60;;;4.70;99.90;;;;;;5086226;28;20038;-76
2023/04/03 01:56:48;;;;;;;6.82;2.90;;;4.70;99.90;;;;;;5093460;28;20112;-76
2023/04/03 01:59:16;;;;;;;10.30;2.50;;;4.70;99.90;;;;;;5093092;28;20110;-76
2023/04/03 02:01:43;;;;;;;10.60;3.28;;;4.70;99.90;;;;;;5091738;28;20020;-76
2023/04/03 02:04:09;;;;;;;9.60;2.50;;;4.70;99.90;;;;;;5093545;28;20448;-76
2023/04/03 02:06:34;;;;;;;7.32;2.65;;;4.60;99.90;;;;;;5092521;28;20081;-75
2023/04/03 02:09:00;;;;;;;8.93;2.97;;;4.60;99.90;;;;;;5092837;28;20103;-76
2023/04/03 02:11:26;;;;;;;9.50;3.00;;;4.60;99.90;;;;;;5092458;28;20464;-76
2023/04/03 02:13:51;;;;;;;12.48;4.10;;;4.60;99.90;;;;;;5093837;28;20034;-76
2023/04/03 02:16:17;;;;;;;8.50;3.15;;;4.60;99.90;;;;;;5092304;28;20024;-76
2023/04/03 02:18:42;;;;;;;11.70;4.40;;;4.60;99.90;;;;;;5093282;28;20032;-76
2023/04/03 02:21:08;;;;;;;11.98;4.50;;;4.60;99.90;;;;;;5089838;28;20078;-76
2023/04/03 02:23:35;;;;;;;12.63;4.03;;;4.50;99.90;;;;;;5080381;28;20386;-76
2023/04/03 02:26:10;;;;;;;10.40;4.60;;;4.50;99.90;;;;;;5088018;28;20409;-76
2023/04/03 02:28:37;;;;;;;16.40;5.35;;;4.50;99.90;;;;;;5081901;28;20051;-76
2023/04/03 02:31:04;;;;;;;11.32;5.68;;;4.50;99.90;;;;;;5081421;28;20047;-76
2023/04/03 02:33:30;;;;;;;12.40;6.03;;;4.50;99.90;;;;;;5098451;28;20031;-76
2023/04/03 02:35:57;;;;;;;13.63;5.43;;;4.50;99.90;;;;;;5099575;28;20096;-75
2023/04/03 02:38:23;;;;;;;15.32;6.13;;;4.40;99.90;;;;;;5100110;28;20068;-76
2023/04/03 02:40:50;;;;;;;14.60;4.80;;;4.40;99.90;;;;;;5098177;28;20028;-76
2023/04/03 02:43:16;;;;;;;8.60;3.78;;;4.30;99.90;;;;;;5099359;28;20028;-76
2023/04/03 02:45:42;;;;;;;10.15;3.60;;;4.40;99.90;;;;;;5098905;28;20102;-76
2023/04/03 02:48:08;;;;;;;10.27;3.70;;;4.40;99.90;;;;;;5099647;28;20432;-76
2023/04/03 02:50:33;;;;;;;11.63;4.00;;;4.30;99.90;;;;;;5097689;28;20054;-76
2023/04/03 02:52:59;;;;;;;7.88;3.15;;;4.30;99.90;;;;;;5098637;28;20126;-76
2023/04/03 02:55:25;;;;;;;6.53;3.20;;;4.30;99.90;;;;;;5098513;28;20032;-76
2023/04/03 02:57:50;;;;;;;10.85;3.17;;;4.30;99.90;;;;;;5099111;28;20468;-76
2023/04/03 03:00:16;;;;;;;7.63;2.90;;;4.20;99.90;;;;;;5093842;28;20051;-75
2023/04/03 03:02:42;;;;;;;7.97;2.90;;;4.20;99.90;;;;;;5086965;28;20174;-75
2023/04/03 03:05:08;;;;;;;7.72;2.78;;;4.20;99.90;;;;;;5096377;28;20028;-75
2023/04/03 03:07:34;;;;;;;6.65;3.20;;;4.20;99.90;;;;;;5098886;28;20043;-75
2023/04/03 03:09:59;;;;;;;7.03;2.45;;;4.20;99.90;;;;;;5097505;28;20067;-75
2023/04/03 03:12:25;;;;;;;6.18;2.55;;;4.20;99.90;;;;;;5097129;28;20105;-76
2023/04/03 03:14:50;;;;;;;5.93;2.55;;;4.20;99.90;;;;;;5096326;28;20571;-76
2023/04/03 03:17:16;;;;;;;7.60;2.55;;;4.20;99.90;;;;;;5093679;28;20369;-75
2023/04/03 03:19:42;;;;;;;9.13;2.80;;;4.10;99.90;;;;;;5097917;28;20020;-76
2023/04/03 03:22:08;;;;;;;7.53;2.58;;;4.10;99.90;;;;;;5096961;28;20085;-76
2023/04/03 03:24:33;;;;;;;6.75;2.63;;;4.10;99.90;;;;;;5098579;28;20019;-75
2023/04/03 03:26:59;;;;;;;8.32;2.25;;;4.10;99.90;;;;;;5097876;28;20076;-76
2023/04/03 03:29:25;;;;;;;4.80;2.30;;;4.10;99.90;;;;;;5097016;28;20047;-75
2023/04/03 03:31:51;;;;;;;5.63;2.55;;;4.10;99.90;;;;;;5097572;28;20048;-75
2023/04/03 03:34:17;;;;;;;10.90;2.92;;;4.00;99.90;;;;;;5097599;28;20103;-75
2023/04/03 03:36:43;;;;;;;6.80;2.60;;;4.10;99.90;;;;;;5098460;28;20519;-75
2023/04/03 03:39:09;;;;;;;8.55;2.55;;;4.00;99.90;;;;;;5097881;28;20108;-75
2023/04/03 03:41:35;;;;;;;8.80;2.60;;;4.00;99.90;;;;;;5095861;28;20032;-75
2023/04/03 03:44:00;;;;;;;8.90;2.78;;;4.00;99.90;;;;;;5090328;28;20024;-75
2023/04/03 03:46:26;;;;;;;8.60;2.38;;;4.00;99.90;;;;;;5088368;28;20027;-76
2023/04/03 03:48:51;;;;;;;8.48;2.72;;;4.00;99.90;;;;;;5095017;28;20039;-76
2023/04/03 03:51:17;;;;;;;9.80;3.05;;;3.90;99.90;;;;;;5091965;28;20063;-75
2023/04/03 03:53:42;;;;;;;10.10;2.90;;;3.90;99.90;;;;;;5094258;28;20213;-75
2023/04/03 03:56:09;;;;;;;11.68;3.20;;;3.90;99.90;;;;;;5094770;28;20032;-74
2023/04/03 03:58:35;;;;;;;7.70;3.15;;;3.90;99.90;;;;;;5091632;28;20031;-75
2023/04/03 04:01:05;;;;;;;9.65;3.22;;;3.90;99.90;;;;;;5093547;28;20540;-74
2023/04/03 04:03:31;;;;;;;8.57;2.88;;;3.80;99.90;;;;;;5096139;28;20016;-75
2023/04/03 04:05:57;;;;;;;7.70;3.00;;;3.80;99.90;;;;;;5096006;28;20365;-76
2023/04/03 04:08:23;;;;;;;10.30;3.85;;;3.80;99.90;;;;;;5095003;28;20070;-76
2023/04/03 04:10:49;;;;;;;11.45;3.38;;;3.80;99.90;;;;;;5082594;28;20040;-76
2023/04/03 04:13:14;;;;;;;7.45;3.10;;;3.80;99.90;;;;;;5092017;28;20523;-76
2023/04/03 04:15:40;;;;;;;8.32;3.35;;;3.80;99.90;;;;;;5091999;28;20024;-76
2023/04/03 04:18:06;;;;;;;7.68;3.20;;;3.80;99.90;;;;;;5088311;28;20028;-75
2023/04/03 04:20:32;;;;;;;10.80;3.30;;;3.80;99.90;;;;;;5088337;28;20059;-75
2023/04/03 04:22:57;;;;;;;14.18;3.75;;;3.70;99.90;;;;;;5093758;28;20034;-76
2023/04/03 04:25:23;;;;;;;9.77;3.25;;;3.70;99.90;;;;;;5094553;28;20403;-76
2023/04/03 04:27:48;;;;;;;8.70;3.40;;;3.70;99.90;;;;;;5091356;28;20028;-76
2023/04/03 04:30:14;;;;;;;8.68;4.00;;;3.70;99.90;;;;;;5089071;28;20036;-76
2023/04/03 04:32:40;;;;;;;9.43;3.70;;;3.70;99.90;;;;;;5093324;28;20092;-76
2023/04/03 04:35:06;;;;;;;7.55;3.80;;;3.70;99.90;;;;;;5087399;28;20024;-76
2023/04/03 04:37:32;;;;;;;9.40;4.00;;;3.60;99.90;;;;;;5088870;28;20021;-76
2023/04/03 04:39:58;;;;;;;7.57;3.20;;;3.60;99.90;;;;;;5091896;28;20028;-76
2023/04/03 04:42:23;;;;;;;11.55;3.75;;;3.60;99.90;;;;;;5093255;28;20028;-76
2023/04/03 04:44:49;;;;;;;8.88;3.55;;;3.60;99.90;;;;;;5094036;28;20372;-76
2023/04/03 04:47:14;;;;;;;8.35;3.58;;;3.60;99.90;;;;;;5094188;28;20394;-75
2023/04/03 04:49:40;;;;;;;10.38;3.47;;;3.60;99.90;;;;;;5092885;28;20400;-76
2023/04/03 04:52:06;;;;;;;10.77;3.67;;;3.60;99.90;;;;;;5090572;28;20036;-76
2023/04/03 04:54:32;;;;;;;8.95;3.88;;;3.50;99.90;;;;;;5092755;28;20383;-76
2023/04/03 04:56:58;;;;;;;8.07;3.38;;;3.50;99.90;;;;;;5092113;28;20048;-75
2023/04/03 04:59:23;;;;;;;11.77;3.58;;;3.50;99.90;;;;;;5089293;28;20017;-76
2023/04/03 05:01:49;;;;;;;16.42;3.97;;;3.50;99.90;;;;;;5089991;28;20032;-76
2023/04/03 05:04:15;;;;;;;8.70;3.75;;;3.50;99.90;;;;;;5092926;28;20024;-77
2023/04/03 05:06:41;;;;;;;14.32;3.95;;;3.50;99.90;;;;;;5093605;28;20039;-76
2023/04/03 05:09:06;;;;;;;12.63;4.55;;;3.50;99.90;;;;;;5089639;28;20024;-76
2023/04/03 05:11:32;;;;;;;7.80;3.83;;;3.50;99.90;;;;;;5092401;28;20515;-77
2023/04/03 05:13:58;;;;;;;8.70;4.35;;;3.50;99.90;;;;;;5086941;28;20118;-77
2023/04/03 05:16:24;;;;;;;8.80;3.72;;;3.50;99.90;;;;;;5093233;28;20031;-76
2023/04/03 05:18:49;;;;;;;6.40;3.53;;;3.50;99.90;;;;;;5093237;28;20102;-76
2023/04/03 05:21:15;;;;;;;8.15;3.92;;;3.50;99.90;;;;;;5092177;28;20024;-76
2023/04/03 05:23:41;;;;;;;11.13;4.13;;;3.50;99.90;;;;;;5092597;28;20024;-77
2023/04/03 05:26:06;;;;;;;11.57;4.00;;;3.50;99.90;;;;;;5091447;28;20052;-76
2023/04/03 05:28:32;;;;;;;10.88;3.70;;;3.50;99.90;;;;;;5084736;28;20388;-76
2023/04/03 05:30:58;;;;;;;9.70;3.83;;;3.50;99.90;;;;;;5091296;28;20040;-76
2023/04/03 05:33:26;;;;;;;9.70;3.95;;;3.50;99.90;;;;;;5093046;28;20028;-76
2023/04/03 05:35:52;;;;;;;12.60;4.05;;;3.60;99.90;;;;;;5093075;28;20028;-76
2023/04/03 05:38:17;;;;;;;14.02;4.57;;;3.60;99.90;;;;;;5092443;28;20356;-76
2023/04/03 05:40:43;;;;;;;11.63;4.30;;;3.60;99.90;;;;;;5091068;28;20016;-76
2023/04/03 05:43:09;;;;;;;13.35;5.13;;;3.60;99.90;;;;;;5089883;28;20036;-77
2023/04/03 05:45:34;;;;;;;13.98;4.95;;;3.60;99.90;;;;;;5090814;28;20028;-77
2023/04/03 05:48:00;;;;;;;12.80;4.28;;;3.60;99.90;;;;;;5092583;28;20456;-76
2023/04/03 05:50:26;;;;;;;10.60;4.68;;;3.70;99.90;;;;;;5090566;28;20071;-77
2023/04/03 05:52:54;;;;;;;9.55;4.90;;;3.70;99.90;;;;;;5092782;28;20034;-77
2023/04/03 05:55:20;;;;;;;14.07;4.68;;;3.70;99.90;;;;;;5092038;28;20032;-74
2023/04/03 05:57:46;;;;;;;13.00;4.97;;;3.80;99.90;;;;;;5092608;28;20028;-75
2023/04/03 06:00:15;;;;;;;11.65;4.97;;;3.80;99.90;;;;;;5088963;28;20387;-75
2023/04/03 06:02:41;;;;;;;15.93;5.72;;;3.80;99.90;;;;;;5092067;28;20028;-75
2023/04/03 06:05:08;;;;;;;13.52;5.40;;;3.90;99.90;;;;;;5092619;28;20032;-76
2023/04/03 06:07:35;;;;;;;15.45;5.57;;;3.90;99.90;;;;;;5084015;28;20039;-75
2023/04/03 06:10:01;;;;;;;13.73;5.22;;;4.00;99.90;;;;;;5091676;28;20441;-75
2023/04/03 06:12:28;;;;;;;12.18;5.43;;;4.00;99.90;;;;;;5090866;28;20024;-75
2023/04/03 06:14:54;;;;;;;15.98;6.10;;;4.10;99.90;;;;;;5092405;28;20085;-75
2023/04/03 06:17:20;;;;;;;15.18;5.88;;;4.10;99.90;;;;;;5088829;28;20460;-75
2023/04/03 06:19:46;;;;;;;13.65;5.25;;;4.20;99.90;;;;;;5087700;28;20055;-75
2023/04/03 06:22:12;;;;;;;19.70;6.05;;;4.20;99.90;;;;;;5090868;28;20024;-75
2023/04/03 06:24:38;;;;;;;12.95;5.90;;;4.30;99.90;;;;;;5087201;28;20073;-75
2023/04/03 06:27:04;;;;;;;17.02;4.93;;;4.40;99.90;;;;;;5091561;28;20020;-74
2023/04/03 06:29:30;;;;;;;13.57;5.05;;;4.50;99.90;;;;;;5091331;28;20026;-75
2023/04/03 06:31:56;;;;;;;14.50;5.35;;;4.50;99.90;;;;;;5089298;28;20044;-75
2023/04/03 06:34:22;;;;;;;13.63;4.70;;;4.60;99.90;;;;;;5091902;28;20024;-75
2023/04/03 06:36:48;;;;;;;11.70;4.82;;;4.70;99.90;;;;;;5086186;28;20028;-76
2023/04/03 06:39:16;;;;;;;13.23;4.72;;;4.70;99.90;;;;;;5086661;28;20460;-75
2023/04/03 06:41:42;;;;;;;11.60;4.63;;;4.80;99.90;;;;;;5091213;28;20069;-76
2023/04/03 06:44:10;;;;;;;12.38;4.70;;;4.90;99.90;;;;;;5092079;28;20055;-75
2023/04/03 06:46:37;;;;;;;18.73;5.20;;;5.00;99.90;;;;;;5090736;28;20035;-75
2023/04/03 06:49:03;;;;;;;10.13;4.25;;;5.10;99.90;;;;;;5090904;28;20051;-75
2023/04/03 06:51:30;;;;;;;11.10;4.40;;;5.20;99.90;;;;;;5090346;28;20040;-75
2023/04/03 06:53:57;;;;;;;12.93;4.30;;;5.30;99.90;;;;;;5090689;28;20078;-75
2023/04/03 06:56:26;;;;;;;9.50;3.30;;;5.30;99.90;;;;;;5089917;28;20020;-76
2023/04/03 06:58:54;;;;;;;13.38;4.50;;;5.40;99.90;;;;;;5088494;28;21561;-75
2023/04/03 07:01:20;;;;;;;11.38;4.38;;;5.50;99.90;;;;;;5086862;28;20067;-75
2023/04/03 07:03:47;;;;;;;12.05;5.03;;;5.60;99.90;;;;;;5090954;28;20024;-75
2023/04/03 07:06:15;;;;;;;12.15;4.43;;;5.60;99.90;;;;;;5091250;28;20094;-75
2023/04/03 07:08:42;;;;;;;10.93;3.60;;;5.80;99.90;;;;;;5091597;28;20368;-75
2023/04/03 07:11:08;;;;;;;16.25;4.22;;;5.80;99.90;;;;;;5088918;28;20053;-74
2023/04/03 07:13:34;;;;;;;11.50;3.75;;;5.90;99.90;;;;;;5090722;28;20027;-76
2023/04/03 07:16:00;;;;;;;14.35;4.20;;;6.00;99.90;;;;;;5085960;28;20016;-75
2023/04/03 07:18:26;;;;;;;14.00;4.57;;;6.10;99.90;;;;;;5090378;28;20395;-75
2023/04/03 07:20:52;;;;;;;9.07;3.65;;;6.20;99.90;;;;;;5093566;28;20085;-75
2023/04/03 07:23:19;;;;;;;10.57;3.65;;;6.30;99.90;;;;;;5095267;28;20017;-75
2023/04/03 07:25:46;;;;;;;10.25;4.28;;;6.40;99.90;;;;;;5090947;28;20075;-75
2023/04/03 07:28:12;;;;;;;10.18;4.18;;;6.50;99.90;;;;;;5093858;28;20032;-74
2023/04/03 07:30:52;;;;;;;13.00;3.95;;;6.70;99.90;;;;;;5092556;28;20103;-75
2023/04/03 07:33:19;;;;;;;10.18;3.40;;;7.10;99.90;;;;;;5093660;28;20356;-75
2023/04/03 07:35:45;;;;;;;9.10;3.33;;;7.50;99.90;;;;;;5087077;28;20032;-75
2023/04/03 07:38:11;;;;;;;15.73;3.92;;;8.10;99.90;;;;;;5085945;28;20495;-75
2023/04/03 07:40:37;;;;;;;8.82;3.15;;;8.80;99.90;;;;;;5086922;28;20050;-76
2023/04/03 07:43:05;;;;;;;11.45;3.47;;;9.70;99.90;;;;;;5089150;28;20135;-76
2023/04/03 07:45:31;;;;;;;10.07;2.90;;;10.70;99.90;;;;;;5094196;28;20115;-74
2023/04/03 07:47:57;;;;;;;7.05;2.83;;;11.80;99.90;;;;;;5093728;28;20040;-76
2023/04/03 07:50:43;;;;;;;10.45;3.00;;;12.90;99.90;;;;;;5092140;28;20036;-75
2023/04/03 07:53:08;;;;;;;7.28;3.10;;;14.20;98.50;;;;;;5082654;28;20055;-75
2023/04/03 07:55:37;;;;;;;7.35;2.50;;;14.80;96.40;;;;;;5089963;28;20062;-76
2023/04/03 07:58:03;;;;;;;8.88;2.97;;;15.40;95.10;;;;;;5089258;28;20028;-75
2023/04/03 08:00:29;;;;;;;6.35;2.40;;;15.90;94.60;;;;;;5091372;28;20035;-74
2023/04/03 08:02:55;;;;;;;10.55;2.72;;;16.30;93.10;;;;;;5088211;28;20046;-75
2023/04/03 08:05:24;;;;;;;5.95;2.50;;;16.50;92.50;;;;;;5094081;28;20531;-75
2023/04/03 08:07:49;;;;;;;7.90;3.00;;;16.80;91.90;;;;;;5094455;28;20066;-75
2023/04/03 08:10:15;;;;;;;9.35;2.60;;;17.30;91.60;;;;;;5094808;28;20465;-77
2023/04/03 08:12:41;;;;;;;4.78;2.13;;;17.90;91.10;;;;;;5092878;28;20044;-74
2023/04/03 08:15:08;;;;;;;9.38;3.28;;;18.40;89.00;;;;;;5090150;28;20020;-74
2023/04/03 08:17:34;;;;;;;9.70;2.67;;;18.70;87.40;;;;;;5093142;28;20464;-76
2023/04/03 08:20:00;;;;;;;6.55;3.08;;;19.00;85.50;;;;;;5095117;28;20035;-76
2023/04/03 08:22:26;;;;;;;5.10;2.30;;;19.20;85.90;;;;;;5094416;28;20028;-75
2023/04/03 08:24:51;;;;;;;7.38;2.75;;;19.30;84.30;;;;;;5094276;28;20102;-76
2023/04/03 08:27:17;;;;;;;6.80;2.55;;;19.50;83.10;;;;;;5094600;28;20145;-75
2023/04/03 08:29:42;;;;;;;5.75;2.58;;;19.60;82.20;;;;;;5092908;28;20028;-76
2023/04/03 08:32:08;;;;;;;10.27;2.22;;;19.60;82.30;;;;;;5090598;28;20028;-75
2023/04/03 08:34:34;;;;;;;9.02;2.90;;;19.70;81.80;;;;;;5094826;28;20099;-75
2023/04/03 08:37:01;;;;;;;6.28;2.50;;;19.90;81.10;;;;;;5095096;28;20038;-75
2023/04/03 08:39:27;;;;;;;7.50;2.25;;;20.20;80.00;;;;;;5094627;28;20027;-75
2023/04/03 08:41:57;;;;;;;8.77;2.90;;;20.50;80.20;;;;;;5094363;28;20547;-75
2023/04/03 08:44:22;;;;;;;8.55;3.00;;;20.70;78.60;;;;;;5094438;28;20073;-74
2023/04/03 08:47:15;;;;;;;5.47;2.42;;;21.00;77.90;;;;;;5093999;28;20024;-75
2023/04/03 08:49:47;;;;;;;5.93;1.92;;;21.30;75.80;;;;;;5093248;28;20020;-74
2023/04/03 08:52:17;;;;;;;7.60;2.30;;;21.20;74.30;;;;;;5092961;28;20153;-74
2023/04/03 08:55:18;;;;;;;8.70;3.70;;;20.90;74.30;;;;;;5094483;28;20073;-74
2023/04/03 08:57:45;;;;;;;7.70;2.42;;;20.70;73.10;;;;;;5093367;28;20050;-74
2023/04/03 09:00:14;;;;;;;5.47;2.00;;;20.70;71.90;;;;;;5097655;28;20076;-74
2023/04/03 09:02:48;;;;;;;8.40;2.40;;;20.70;70.90;;;;;;5093870;28;20384;-74
2023/04/03 09:05:35;;;;;;;7.43;2.55;;;20.80;71.90;;;;;;5091996;28;20523;-74
2023/04/03 09:08:21;;;;;;;8.50;2.55;;;21.10;70.60;;;;;;5058852;28;20048;-75
2023/04/03 09:10:46;;;;;;;5.93;1.90;;;21.20;71.10;;;;;;5093870;28;20373;-74
2023/04/03 09:13:45;;;;;;;6.13;2.30;;;21.60;69.50;;;;;;5094051;28;20035;-75
2023/04/03 09:16:42;;;;;;;5.28;2.00;;;21.90;68.60;;;;;;5075149;28;20040;-75
2023/04/03 09:19:18;;;;;;;4.15;2.05;;;22.20;68.10;;;;;;5094076;28;20035;-75
2023/04/03 09:21:44;;;;;;;9.57;2.35;;;22.30;64.10;;;;;;5086657;28;20464;-75
2023/04/03 09:24:16;;;;;;;3.55;2.10;;;22.10;62.90;;;;;;5090825;28;20039;-75
2023/04/03 09:26:44;;;;;;;5.00;2.30;;;21.90;64.70;;;;;;5093408;28;20568;-75
2023/04/03 09:29:17;;;;;;;7.18;1.92;;;21.90;65.20;;;;;;5091660;28;20051;-75
2023/04/03 09:31:45;;;;;;;5.82;1.90;;;22.10;65.20;;;;;;5091079;28;20047;-74
2023/04/03 09:34:27;;;;;;;5.93;1.90;;;22.30;63.60;;;;;;5091596;28;20032;-75
2023/04/03 09:36:55;;;;;;;4.30;2.20;;;22.30;63.40;;;;;;5091838;28;20043;-75
2023/04/03 09:39:28;;;;;;;3.53;1.65;;;22.50;62.10;;;;;;5090015;28;20032;-75
2023/04/03 09:42:25;;;;;;;4.22;1.60;;;22.70;59.40;;;;;;5084952;28;20028;-75
2023/04/03 09:45:21;;;;;;;3.42;1.90;;;22.60;61.60;;;;;;5085639;28;20040;-76
2023/04/03 09:47:47;;;;;;;3.30;1.55;;;22.70;61.40;;;;;;5085731;28;20039;-75
2023/04/03 09:50:12;;;;;;;4.15;2.15;;;22.90;60.00;;;;;;5093343;28;20036;-75
2023/04/03 09:52:40;;;;;;;9.70;2.30;;;22.90;59.60;;;;;;5092227;28;20043;-76
2023/04/03 09:55:21;;;;;;;4.53;1.35;;;23.00;58.50;;;;;;5090686;28;20488;-75
2023/04/03 09:57:48;;;;;;;5.07;1.50;;;23.00;57.70;;;;;;5090888;28;20044;-75
2023/04/03 10:00:25;;;;;;;2.95;1.65;;;22.60;56.20;;;;;;5092918;28;20028;-75
2023/04/03 10:02:54;;;;;;;4.38;1.75;;;22.20;57.70;;;;;;5090697;28;20032;-76
2023/04/03 10:05:35;;;;;;;3.50;1.58;;;22.20;58.30;;;;;;5092868;28;20113;-76
2023/04/03 10:08:13;;;;;;;5.15;1.50;;;22.40;57.40;;;;;;5084965;28;20031;-76
2023/04/03 10:10:43;;;;;;;3.33;1.50;;;22.40;54.60;;;;;;5089112;28;20090;-75
2023/04/03 10:13:20;;;;;;;2.80;1.38;;;21.90;56.00;;;;;;5089958;28;20020;-75
2023/04/03 10:16:06;;;;;;;3.28;1.23;;;21.60;57.00;;;;;;5092298;28;20035;-76
2023/04/03 10:18:53;;;;;;;3.50;1.25;;;21.80;58.30;;;;;;5090207;28;20020;-76
2023/04/03 10:21:37;;;;;;;4.28;1.48;;;22.20;56.30;;;;;;5091147;28;20103;-75
2023/04/03 10:24:30;;;;;;;3.60;1.40;;;21.90;54.20;;;;;;5090517;28;20088;-76
2023/04/03 10:27:18;;;;;;;2.63;1.30;;;21.50;54.40;;;;;;5092348;28;20456;-76
2023/04/03 10:30:13;;;;;;;5.50;0.98;;;21.10;55.50;;;;;;5087749;28;20090;-76
2023/04/03 10:33:02;;;;;;;2.88;1.10;;;21.20;56.50;;;;;;5069409;28;20040;-76
2023/04/03 10:36:02;;;;;;;2.08;1.30;;;21.70;55.00;;;;;;5078206;28;20043;-77
2023/04/03 10:38:50;;;;;;;3.17;1.02;;;21.80;53.80;;;;;;5092978;28;20490;-77
2023/04/03 10:41:31;;;;;;;2.67;1.10;;;21.90;53.50;;;;;;5089159;28;20032;-74
2023/04/03 10:44:18;;;;;;;5.20;1.27;;;21.90;53.50;;;;;;5086607;28;20054;-74
2023/04/03 10:46:55;;;;;;;3.72;1.15;;;21.90;53.40;;;;;;5080386;28;20051;-75
2023/04/03 10:49:38;;;;;;;4.28;1.25;;;21.90;55.10;;;;;;5092885;28;20085;-75
2023/04/03 10:52:24;;;;;;;1.98;1.05;;;22.00;53.30;;;;;;5086130;28;20442;-76
2023/04/03 10:55:03;;;;;;;1.92;1.23;;;22.20;52.30;;;;;;5088009;28;20605;-75
2023/04/03 10:57:29;;;;;;;3.08;1.08;;;22.00;54.10;;;;;;5095488;28;20033;-76
2023/04/03 11:00:01;;;;;;;3.38;1.40;;;22.20;52.10;;;;;;5097020;28;20024;-76
2023/04/03 11:02:36;;;;;;;2.70;1.20;;;22.30;52.30;;;;;;5095067;28;20484;-76
2023/04/03 11:05:09;;;;;;;3.50;1.10;;;22.20;51.80;;;;;;5090967;28;20028;-77
2023/04/03 11:07:42;;;;;;;1.80;1.05;;;21.90;51.50;;;;;;5096806;28;20509;-76
2023/04/03 11:10:19;;;;;;;3.50;1.30;;;21.50;52.50;;;;;;5096289;28;20053;-76
2023/04/03 11:12:50;;;;;;;2.78;1.00;;;21.40;51.30;;;;;;5094735;28;20110;-77
2023/04/03 11:15:19;;;;;;;2.88;1.13;;;21.40;52.30;;;;;;5096396;28;20183;-76
2023/04/03 11:18:00;;;;;;;4.22;1.20;;;21.30;52.50;;;;;;5092684;28;20135;-77
2023/04/03 11:20:32;;;;;;;4.30;1.17;;;21.30;52.20;;;;;;5090359;28;20037;-76
2023/04/03 11:23:13;;;;;;;6.03;1.38;;;21.50;53.10;;;;;;5096344;28;20520;-77
2023/04/03 11:25:41;;;;;;;1.70;1.10;;;21.70;51.90;;;;;;5095368;28;20078;-79
2023/04/03 11:28:13;;;;;;;2.35;1.13;;;21.90;51.50;;;;;;5096277;28;20038;-76
2023/04/03 11:30:48;;;;;;;3.60;1.13;;;22.00;51.50;;;;;;5091446;28;20039;-78
2023/04/03 11:33:31;;;;;;;2.58;1.10;;;22.30;52.10;;;;;;5085383;28;20081;-77
2023/04/03 11:36:30;;;;;;;2.60;1.13;;;22.70;51.20;;;;;;5091014;28;20107;-76
2023/04/03 11:38:59;;;;;;;2.58;1.00;;;23.00;50.90;;;;;;5085005;28;20036;-77
2023/04/03 11:41:28;;;;;;;3.35;1.23;;;23.30;50.60;;;;;;5094820;28;20023;-77
2023/04/03 11:44:24;;;;;;;4.90;1.23;;;23.40;50.70;;;;;;5090183;28;20020;-76
2023/04/03 11:46:59;;;;;;;5.28;1.42;;;23.30;48.60;;;;;;5085775;28;20036;-77
2023/04/03 11:49:55;;;;;;;2.45;1.20;;;23.20;50.50;;;;;;5095745;28;20027;-76
2023/04/03 11:52:48;;;;;;;3.20;1.30;;;23.20;48.80;;;;;;5093950;28;20498;-77
2023/04/03 11:55:20;;;;;;;3.47;1.20;;;22.80;49.20;;;;;;5087420;28;20044;-76
2023/04/03 11:57:46;;;;;;;3.00;1.35;;;22.60;48.70;;;;;;5094345;28;20047;-78
2023/04/03 12:00:54;;;;;;;2.25;1.38;;;22.30;49.50;;;;;;5095823;28;20024;-78
2023/04/03 12:03:29;;;;;;;2.92;1.15;;;22.50;50.00;;;;;;5093264;28;20533;-77
2023/04/03 12:06:05;;;;;;;1.55;0.95;;;22.80;48.80;;;;;;5089611;28;20016;-79
2023/04/03 12:08:40;;;;;;;3.00;1.10;;;22.60;49.10;;;;;;5093154;28;20031;-78
2023/04/03 12:11:29;;;;;;;4.50;1.38;;;22.60;49.90;;;;;;5092285;28;20127;-78
2023/04/03 12:13:55;;;;;;;1.77;1.00;;;22.70;50.70;;;;;;5091985;28;20165;-76
2023/04/03 12:16:41;;;;;;;2.80;1.00;;;22.70;49.60;;;;;;5091634;28;20468;-75
2023/04/03 12:19:31;;;;;;;2.25;1.45;;;22.50;49.30;;;;;;5092697;28;20032;-78
2023/04/03 12:21:59;;;;;;;3.85;0.70;;;22.50;50.00;;;;;;5090338;28;20104;-79
2023/04/03 12:24:31;;;;;;;5.95;1.10;;;22.60;49.00;;;;;;5094415;28;20024;-79
2023/04/03 12:26:59;;;;;;;4.22;0.82;;;22.50;49.00;;;;;;5093755;28;20121;-79
2023/04/03 12:29:32;;;;;;;5.63;0.98;;;22.50;48.90;;;;;;5091307;28;20107;-79
2023/04/03 12:32:25;;;;;;;3.97;1.10;;;22.30;48.80;;;;;;5093949;28;20094;-79
2023/04/03 12:35:29;;;;;;;1.73;0.82;;;22.20;49.40;;;;;;5094584;28;20032;-79
2023/04/03 12:38:25;;;;;;;1.20;0.73;;;21.90;48.30;;;;;;5089605;28;20468;-79
2023/04/03 12:41:17;;;;;;;1.73;0.98;;;21.80;48.60;;;;;;5085049;28;20035;-79
2023/04/03 12:43:49;;;;;;;2.83;0.82;;;21.80;49.10;;;;;;5093571;28;20052;-79
2023/04/03 12:46:18;;;;;;;2.95;0.90;;;21.60;48.40;;;;;;5089005;28;20028;-79
2023/04/03 12:48:44;;;;;;;3.47;1.17;;;21.50;50.10;;;;;;5094874;28;20391;-78
2023/04/03 12:51:19;;;;;;;1.80;0.85;;;21.20;49.60;;;;;;5093053;28;20047;-78
2023/04/03 12:53:45;;;;;;;1.45;0.85;;;20.50;48.40;;;;;;5093918;28;20126;-78
2023/04/03 12:56:31;;;;;;;2.67;1.33;;;19.90;50.70;;;;;;5094039;28;20060;-78
2023/04/03 12:59:16;;;;;;;2.70;0.90;;;19.30;50.10;;;;;;5094323;28;20032;-79
2023/04/03 13:01:41;;;;;;;2.55;1.10;;;18.90;51.50;;;;;;5090714;28;20032;-78
2023/04/03 13:04:11;;;;;;;5.10;1.52;;;18.30;51.50;;;;;;5092581;28;20572;-79
2023/04/03 13:06:42;;;;;;;2.67;1.27;;;17.90;52.30;;;;;;5084014;28;20028;-79
2023/04/03 13:09:26;;;;;;;3.15;1.02;;;17.50;53.00;;;;;;5095207;28;20064;-79
2023/04/03 13:12:00;;;;;;;4.10;1.30;;;17.00;53.60;;;;;;5093985;28;20085;-78